sensor_id;sensor_type;location;lat;lon;timestamp;P1;durP1;ratioP1;P2;durP2;ratioP2
19205;SDS011;59358;52.134;5.596;2023-03-01T00:00:16;12.55;;;9.30;;
19205;SDS011;59358;52.134;5.596;2023-03-01T00:02:44;16.80;;;10.50;;
19205;SDS011;59358;52.134;5.596;2023-03-01T00:05:11;17.95;;;10.30;;
19205;SDS011;59358;52.134;5.596;2023-03-01T00:07:38;13.88;;;9.23;;
19205;SDS011;59358;52.134;5.596;2023-03-01T00:10:05;13.52;;;9.65;;
19205;SDS011;59358;52.134;5.596;2023-03-01T00:12:32;11.45;;;9.40;;
19205;SDS011;59358;52.134;5.596;2023-03-01T00:14:59;12.68;;;8.75;;
19205;SDS011;59358;52.134;5.596;2023-03-01T00:17:26;14.38;;;9.43;;
19205;SDS011;59358;52.134;5.596;2023-03-01T00:19:55;16.25;;;10.07;;
19205;SDS011;59358;52.134;5.596;2023-03-01T00:22:21;13.10;;;9.52;;
19205;SDS011;59358;52.134;5.596;2023-03-01T00:24:48;14.20;;;10.70;;
19205;SDS011;59358;52.134;5.596;2023-03-01T00:27:15;14.77;;;10.23;;
19205;SDS011;59358;52.134;5.596;2023-03-01T00:29:42;12.55;;;9.38;;
19205;SDS011;59358;52.134;5.596;2023-03-01T00:32:09;18.30;;;10.00;;
19205;SDS011;59358;52.134;5.596;2023-03-01T00:34:36;14.88;;;9.73;;
19205;SDS011;59358;52.134;5.596;2023-03-01T00:37:04;13.93;;;9.88;;
19205;SDS011;59358;52.134;5.596;2023-03-01T00:39:31;16.83;;;10.43;;
19205;SDS011;59358;52.134;5.596;2023-03-01T00:41:58;17.00;;;10.80;;
19205;SDS011;59358;52.134;5.596;2023-03-01T00:44:25;15.73;;;10.30;;
19205;SDS011;59358;52.134;5.596;2023-03-01T00:46:53;16.67;;;10.07;;
19205;SDS011;59358;52.134;5.596;2023-03-01T00:49:20;15.55;;;9.43;;
19205;SDS011;59358;52.134;5.596;2023-03-01T00:51:49;17.83;;;10.60;;
19205;SDS011;59358;52.134;5.596;2023-03-01T00:54:17;16.23;;;11.45;;
19205;SDS011;59358;52.134;5.596;2023-03-01T00:56:44;18.40;;;10.88;;
19205;SDS011;59358;52.134;5.596;2023-03-01T00:59:11;19.05;;;10.65;;
19205;SDS011;59358;52.134;5.596;2023-03-01T01:01:37;19.42;;;11.30;;
19205;SDS011;59358;52.134;5.596;2023-03-01T01:04:05;24.67;;;13.43;;
19205;SDS011;59358;52.134;5.596;2023-03-01T01:06:34;17.27;;;11.00;;
19205;SDS011;59358;52.134;5.596;2023-03-01T01:09:02;17.70;;;10.63;;
19205;SDS011;59358;52.134;5.596;2023-03-01T01:11:32;16.98;;;10.65;;
19205;SDS011;59358;52.134;5.596;2023-03-01T01:14:00;16.42;;;11.00;;
19205;SDS011;59358;52.134;5.596;2023-03-01T01:16:27;19.25;;;12.00;;
19205;SDS011;59358;52.134;5.596;2023-03-01T01:18:55;16.52;;;11.13;;
19205;SDS011;59358;52.134;5.596;2023-03-01T01:21:22;21.73;;;11.20;;
19205;SDS011;59358;52.134;5.596;2023-03-01T01:23:50;19.42;;;10.73;;
19205;SDS011;59358;52.134;5.596;2023-03-01T01:26:19;14.70;;;9.65;;
19205;SDS011;59358;52.134;5.596;2023-03-01T01:28:48;17.88;;;10.40;;
19205;SDS011;59358;52.134;5.596;2023-03-01T01:31:16;13.73;;;10.27;;
19205;SDS011;59358;52.134;5.596;2023-03-01T01:33:43;21.70;;;11.68;;
19205;SDS011;59358;52.134;5.596;2023-03-01T01:36:10;16.75;;;11.02;;
19205;SDS011;59358;52.134;5.596;2023-03-01T01:38:38;16.88;;;11.23;;
19205;SDS011;59358;52.134;5.596;2023-03-01T01:41:07;17.98;;;11.25;;
19205;SDS011;59358;52.134;5.596;2023-03-01T01:43:37;17.67;;;10.80;;
19205;SDS011;59358;52.134;5.596;2023-03-01T01:46:10;17.75;;;11.18;;
19205;SDS011;59358;52.134;5.596;2023-03-01T01:48:48;17.92;;;11.07;;
19205;SDS011;59358;52.134;5.596;2023-03-01T01:51:21;18.83;;;11.82;;
19205;SDS011;59358;52.134;5.596;2023-03-01T01:53:53;17.83;;;11.23;;
19205;SDS011;59358;52.134;5.596;2023-03-01T01:56:22;20.38;;;11.93;;
19205;SDS011;59358;52.134;5.596;2023-03-01T01:58:51;19.17;;;10.70;;
19205;SDS011;59358;52.134;5.596;2023-03-01T02:01:20;15.85;;;10.20;;
19205;SDS011;59358;52.134;5.596;2023-03-01T02:03:47;18.75;;;11.55;;
19205;SDS011;59358;52.134;5.596;2023-03-01T02:06:17;18.83;;;11.63;;
19205;SDS011;59358;52.134;5.596;2023-03-01T02:08:48;20.35;;;12.05;;
19205;SDS011;59358;52.134;5.596;2023-03-01T02:11:17;17.05;;;11.75;;
19205;SDS011;59358;52.134;5.596;2023-03-01T02:13:44;17.52;;;11.07;;
19205;SDS011;59358;52.134;5.596;2023-03-01T02:16:13;16.33;;;12.10;;
19205;SDS011;59358;52.134;5.596;2023-03-01T02:18:42;21.38;;;11.85;;
19205;SDS011;59358;52.134;5.596;2023-03-01T02:21:14;20.67;;;12.10;;
19205;SDS011;59358;52.134;5.596;2023-03-01T02:23:51;19.48;;;12.20;;
19205;SDS011;59358;52.134;5.596;2023-03-01T02:26:23;22.48;;;13.13;;
19205;SDS011;59358;52.134;5.596;2023-03-01T02:28:58;18.35;;;11.57;;
19205;SDS011;59358;52.134;5.596;2023-03-01T02:31:25;19.58;;;11.75;;
19205;SDS011;59358;52.134;5.596;2023-03-01T02:34:11;22.98;;;12.38;;
19205;SDS011;59358;52.134;5.596;2023-03-01T02:36:41;18.23;;;11.90;;
19205;SDS011;59358;52.134;5.596;2023-03-01T02:39:12;19.30;;;11.90;;
19205;SDS011;59358;52.134;5.596;2023-03-01T02:41:44;21.77;;;11.98;;
19205;SDS011;59358;52.134;5.596;2023-03-01T02:44:15;21.65;;;12.73;;
19205;SDS011;59358;52.134;5.596;2023-03-01T02:46:43;19.40;;;11.93;;
19205;SDS011;59358;52.134;5.596;2023-03-01T02:49:18;20.05;;;12.70;;
19205;SDS011;59358;52.134;5.596;2023-03-01T02:52:01;20.77;;;12.77;;
19205;SDS011;59358;52.134;5.596;2023-03-01T02:54:43;21.23;;;11.63;;
19205;SDS011;59358;52.134;5.596;2023-03-01T02:57:16;17.08;;;11.65;;
19205;SDS011;59358;52.134;5.596;2023-03-01T02:59:45;19.38;;;12.27;;
19205;SDS011;59358;52.134;5.596;2023-03-01T03:02:18;24.30;;;13.95;;
19205;SDS011;59358;52.134;5.596;2023-03-01T03:05:00;18.13;;;11.50;;
19205;SDS011;59358;52.134;5.596;2023-03-01T03:07:28;20.85;;;12.98;;
19205;SDS011;59358;52.134;5.596;2023-03-01T03:09:55;20.85;;;12.25;;
19205;SDS011;59358;52.134;5.596;2023-03-01T03:12:22;21.23;;;12.65;;
19205;SDS011;59358;52.134;5.596;2023-03-01T03:14:50;19.80;;;13.20;;
19205;SDS011;59358;52.134;5.596;2023-03-01T03:17:17;21.52;;;12.10;;
19205;SDS011;59358;52.134;5.596;2023-03-01T03:19:44;20.90;;;12.68;;
19205;SDS011;59358;52.134;5.596;2023-03-01T03:22:11;22.50;;;14.18;;
19205;SDS011;59358;52.134;5.596;2023-03-01T03:24:38;21.08;;;13.68;;
19205;SDS011;59358;52.134;5.596;2023-03-01T03:27:04;22.15;;;13.07;;
19205;SDS011;59358;52.134;5.596;2023-03-01T03:29:32;23.05;;;14.50;;
19205;SDS011;59358;52.134;5.596;2023-03-01T03:32:01;24.98;;;14.27;;
19205;SDS011;59358;52.134;5.596;2023-03-01T03:34:28;20.55;;;13.52;;
19205;SDS011;59358;52.134;5.596;2023-03-01T03:36:55;23.27;;;13.52;;
19205;SDS011;59358;52.134;5.596;2023-03-01T03:39:24;22.20;;;13.98;;
19205;SDS011;59358;52.134;5.596;2023-03-01T03:41:51;26.02;;;12.93;;
19205;SDS011;59358;52.134;5.596;2023-03-01T03:44:18;20.13;;;12.80;;
19205;SDS011;59358;52.134;5.596;2023-03-01T03:46:45;24.67;;;13.98;;
19205;SDS011;59358;52.134;5.596;2023-03-01T03:49:14;22.40;;;13.95;;
19205;SDS011;59358;52.134;5.596;2023-03-01T03:51:41;22.60;;;14.05;;
19205;SDS011;59358;52.134;5.596;2023-03-01T03:54:08;20.95;;;13.50;;
19205;SDS011;59358;52.134;5.596;2023-03-01T03:56:36;19.13;;;12.90;;
19205;SDS011;59358;52.134;5.596;2023-03-01T03:59:02;21.27;;;13.52;;
19205;SDS011;59358;52.134;5.596;2023-03-01T04:01:30;22.80;;;13.73;;
19205;SDS011;59358;52.134;5.596;2023-03-01T04:03:57;20.02;;;13.25;;
19205;SDS011;59358;52.134;5.596;2023-03-01T04:06:30;26.13;;;15.50;;
19205;SDS011;59358;52.134;5.596;2023-03-01T04:08:57;22.02;;;13.57;;
19205;SDS011;59358;52.134;5.596;2023-03-01T04:11:25;22.23;;;13.45;;
19205;SDS011;59358;52.134;5.596;2023-03-01T04:13:53;24.52;;;14.35;;
19205;SDS011;59358;52.134;5.596;2023-03-01T04:16:21;22.95;;;13.38;;
19205;SDS011;59358;52.134;5.596;2023-03-01T04:18:48;25.35;;;14.70;;
19205;SDS011;59358;52.134;5.596;2023-03-01T04:21:15;25.00;;;14.82;;
19205;SDS011;59358;52.134;5.596;2023-03-01T04:23:43;28.98;;;15.60;;
19205;SDS011;59358;52.134;5.596;2023-03-01T04:26:10;24.48;;;14.98;;
19205;SDS011;59358;52.134;5.596;2023-03-01T04:28:38;30.88;;;15.70;;
19205;SDS011;59358;52.134;5.596;2023-03-01T04:31:08;28.95;;;15.30;;
19205;SDS011;59358;52.134;5.596;2023-03-01T04:33:39;24.88;;;14.90;;
19205;SDS011;59358;52.134;5.596;2023-03-01T04:36:07;22.42;;;15.38;;
19205;SDS011;59358;52.134;5.596;2023-03-01T04:38:35;26.48;;;15.75;;
19205;SDS011;59358;52.134;5.596;2023-03-01T04:41:04;27.27;;;16.67;;
19205;SDS011;59358;52.134;5.596;2023-03-01T04:43:32;27.17;;;16.80;;
19205;SDS011;59358;52.134;5.596;2023-03-01T04:46:00;28.30;;;17.92;;
19205;SDS011;59358;52.134;5.596;2023-03-01T04:48:28;27.00;;;17.63;;
19205;SDS011;59358;52.134;5.596;2023-03-01T04:50:55;30.52;;;18.52;;
19205;SDS011;59358;52.134;5.596;2023-03-01T04:53:22;33.85;;;19.30;;
19205;SDS011;59358;52.134;5.596;2023-03-01T04:55:49;29.85;;;18.27;;
19205;SDS011;59358;52.134;5.596;2023-03-01T04:58:18;32.42;;;19.33;;
19205;SDS011;59358;52.134;5.596;2023-03-01T05:00:44;30.20;;;19.98;;
19205;SDS011;59358;52.134;5.596;2023-03-01T05:03:11;31.52;;;19.98;;
19205;SDS011;59358;52.134;5.596;2023-03-01T05:05:43;26.70;;;17.48;;
19205;SDS011;59358;52.134;5.596;2023-03-01T05:08:11;29.33;;;17.88;;
19205;SDS011;59358;52.134;5.596;2023-03-01T05:10:42;29.90;;;17.85;;
19205;SDS011;59358;52.134;5.596;2023-03-01T05:13:11;27.75;;;17.48;;
19205;SDS011;59358;52.134;5.596;2023-03-01T05:15:39;27.45;;;16.33;;
19205;SDS011;59358;52.134;5.596;2023-03-01T05:18:06;29.80;;;17.00;;
19205;SDS011;59358;52.134;5.596;2023-03-01T05:20:36;27.35;;;15.77;;
19205;SDS011;59358;52.134;5.596;2023-03-01T05:23:04;26.17;;;15.82;;
19205;SDS011;59358;52.134;5.596;2023-03-01T05:25:31;31.80;;;17.17;;
19205;SDS011;59358;52.134;5.596;2023-03-01T05:27:59;37.72;;;16.52;;
19205;SDS011;59358;52.134;5.596;2023-03-01T05:30:29;33.22;;;18.23;;
19205;SDS011;59358;52.134;5.596;2023-03-01T05:32:57;30.92;;;18.45;;
19205;SDS011;59358;52.134;5.596;2023-03-01T05:35:24;35.55;;;19.40;;
19205;SDS011;59358;52.134;5.596;2023-03-01T05:37:52;34.22;;;17.88;;
19205;SDS011;59358;52.134;5.596;2023-03-01T05:40:20;32.47;;;18.13;;
19205;SDS011;59358;52.134;5.596;2023-03-01T05:42:49;30.50;;;17.88;;
19205;SDS011;59358;52.134;5.596;2023-03-01T05:45:19;33.72;;;18.08;;
19205;SDS011;59358;52.134;5.596;2023-03-01T05:47:47;31.75;;;18.08;;
19205;SDS011;59358;52.134;5.596;2023-03-01T05:50:17;31.10;;;19.52;;
19205;SDS011;59358;52.134;5.596;2023-03-01T05:52:46;34.78;;;18.45;;
19205;SDS011;59358;52.134;5.596;2023-03-01T05:55:14;32.72;;;17.60;;
19205;SDS011;59358;52.134;5.596;2023-03-01T05:57:42;36.90;;;19.30;;
19205;SDS011;59358;52.134;5.596;2023-03-01T06:00:10;33.05;;;17.80;;
19205;SDS011;59358;52.134;5.596;2023-03-01T06:02:39;31.45;;;16.52;;
19205;SDS011;59358;52.134;5.596;2023-03-01T06:05:06;36.05;;;18.38;;
19205;SDS011;59358;52.134;5.596;2023-03-01T06:07:35;32.75;;;17.63;;
19205;SDS011;59358;52.134;5.596;2023-03-01T06:10:02;34.05;;;17.77;;
19205;SDS011;59358;52.134;5.596;2023-03-01T06:12:30;33.78;;;17.33;;
19205;SDS011;59358;52.134;5.596;2023-03-01T06:14:57;38.65;;;19.15;;
19205;SDS011;59358;52.134;5.596;2023-03-01T06:17:24;35.88;;;17.25;;
19205;SDS011;59358;52.134;5.596;2023-03-01T06:19:52;42.47;;;19.95;;
19205;SDS011;59358;52.134;5.596;2023-03-01T06:22:18;32.33;;;17.88;;
19205;SDS011;59358;52.134;5.596;2023-03-01T06:24:47;39.35;;;20.40;;
19205;SDS011;59358;52.134;5.596;2023-03-01T06:27:14;42.35;;;20.05;;
19205;SDS011;59358;52.134;5.596;2023-03-01T06:29:40;38.58;;;19.40;;
19205;SDS011;59358;52.134;5.596;2023-03-01T06:32:07;36.33;;;19.17;;
19205;SDS011;59358;52.134;5.596;2023-03-01T06:34:34;34.63;;;17.23;;
19205;SDS011;59358;52.134;5.596;2023-03-01T06:37:01;35.70;;;18.67;;
19205;SDS011;59358;52.134;5.596;2023-03-01T06:39:30;30.70;;;18.00;;
19205;SDS011;59358;52.134;5.596;2023-03-01T06:41:58;29.73;;;16.75;;
19205;SDS011;59358;52.134;5.596;2023-03-01T06:44:26;32.30;;;17.35;;
19205;SDS011;59358;52.134;5.596;2023-03-01T06:46:53;32.13;;;17.80;;
19205;SDS011;59358;52.134;5.596;2023-03-01T06:49:20;29.73;;;18.52;;
19205;SDS011;59358;52.134;5.596;2023-03-01T06:51:47;31.20;;;17.67;;
19205;SDS011;59358;52.134;5.596;2023-03-01T06:54:13;35.47;;;19.15;;
19205;SDS011;59358;52.134;5.596;2023-03-01T06:56:40;36.30;;;20.63;;
19205;SDS011;59358;52.134;5.596;2023-03-01T06:59:09;36.40;;;19.90;;
19205;SDS011;59358;52.134;5.596;2023-03-01T07:01:36;36.38;;;19.23;;
19205;SDS011;59358;52.134;5.596;2023-03-01T07:04:03;40.55;;;21.00;;
19205;SDS011;59358;52.134;5.596;2023-03-01T07:06:30;36.28;;;20.45;;
19205;SDS011;59358;52.134;5.596;2023-03-01T07:08:57;36.45;;;21.48;;
19205;SDS011;59358;52.134;5.596;2023-03-01T07:11:25;39.88;;;21.90;;
19205;SDS011;59358;52.134;5.596;2023-03-01T07:13:52;48.75;;;21.35;;
19205;SDS011;59358;52.134;5.596;2023-03-01T07:16:20;36.88;;;20.90;;
19205;SDS011;59358;52.134;5.596;2023-03-01T07:18:47;41.55;;;21.67;;
19205;SDS011;59358;52.134;5.596;2023-03-01T07:21:14;39.53;;;21.83;;
19205;SDS011;59358;52.134;5.596;2023-03-01T07:23:41;37.58;;;20.08;;
19205;SDS011;59358;52.134;5.596;2023-03-01T07:26:08;37.28;;;20.88;;
19205;SDS011;59358;52.134;5.596;2023-03-01T07:28:35;36.70;;;20.00;;
19205;SDS011;59358;52.134;5.596;2023-03-01T07:31:04;41.40;;;22.52;;
19205;SDS011;59358;52.134;5.596;2023-03-01T07:33:33;47.00;;;21.42;;
19205;SDS011;59358;52.134;5.596;2023-03-01T07:36:04;46.35;;;22.60;;
19205;SDS011;59358;52.134;5.596;2023-03-01T07:38:32;41.65;;;21.38;;
19205;SDS011;59358;52.134;5.596;2023-03-01T07:40:59;47.67;;;22.17;;
19205;SDS011;59358;52.134;5.596;2023-03-01T07:43:28;42.67;;;21.40;;
19205;SDS011;59358;52.134;5.596;2023-03-01T07:45:57;38.85;;;20.60;;
19205;SDS011;59358;52.134;5.596;2023-03-01T07:48:25;38.30;;;21.95;;
19205;SDS011;59358;52.134;5.596;2023-03-01T07:50:53;40.88;;;24.80;;
19205;SDS011;59358;52.134;5.596;2023-03-01T07:53:20;36.60;;;20.33;;
19205;SDS011;59358;52.134;5.596;2023-03-01T07:55:47;34.10;;;18.92;;
19205;SDS011;59358;52.134;5.596;2023-03-01T07:58:14;31.98;;;20.95;;
19205;SDS011;59358;52.134;5.596;2023-03-01T08:00:40;32.60;;;21.50;;
19205;SDS011;59358;52.134;5.596;2023-03-01T08:03:08;32.00;;;17.25;;
19205;SDS011;59358;52.134;5.596;2023-03-01T08:05:34;31.20;;;17.38;;
19205;SDS011;59358;52.134;5.596;2023-03-01T08:08:05;23.52;;;15.55;;
19205;SDS011;59358;52.134;5.596;2023-03-01T08:10:32;30.33;;;16.20;;
19205;SDS011;59358;52.134;5.596;2023-03-01T08:12:59;31.30;;;16.90;;
19205;SDS011;59358;52.134;5.596;2023-03-01T08:15:26;25.52;;;15.93;;
19205;SDS011;59358;52.134;5.596;2023-03-01T08:17:53;36.53;;;17.65;;
19205;SDS011;59358;52.134;5.596;2023-03-01T08:20:19;29.65;;;17.23;;
19205;SDS011;59358;52.134;5.596;2023-03-01T08:22:46;27.83;;;17.30;;
19205;SDS011;59358;52.134;5.596;2023-03-01T08:25:14;29.00;;;15.80;;
19205;SDS011;59358;52.134;5.596;2023-03-01T08:27:41;31.10;;;16.30;;
19205;SDS011;59358;52.134;5.596;2023-03-01T08:30:08;20.73;;;13.73;;
19205;SDS011;59358;52.134;5.596;2023-03-01T08:32:36;25.98;;;13.18;;
19205;SDS011;59358;52.134;5.596;2023-03-01T08:35:04;27.35;;;12.40;;
19205;SDS011;59358;52.134;5.596;2023-03-01T08:37:31;25.45;;;12.07;;
19205;SDS011;59358;52.134;5.596;2023-03-01T08:39:58;18.88;;;10.95;;
19205;SDS011;59358;52.134;5.596;2023-03-01T08:42:26;15.57;;;10.27;;
19205;SDS011;59358;52.134;5.596;2023-03-01T08:44:53;21.55;;;11.48;;
19205;SDS011;59358;52.134;5.596;2023-03-01T08:47:21;14.38;;;10.13;;
19205;SDS011;59358;52.134;5.596;2023-03-01T08:49:49;18.02;;;10.45;;
19205;SDS011;59358;52.134;5.596;2023-03-01T08:52:16;18.80;;;12.07;;
19205;SDS011;59358;52.134;5.596;2023-03-01T08:54:43;16.00;;;10.30;;
19205;SDS011;59358;52.134;5.596;2023-03-01T08:57:09;15.73;;;9.82;;
19205;SDS011;59358;52.134;5.596;2023-03-01T08:59:39;14.40;;;8.90;;
19205;SDS011;59358;52.134;5.596;2023-03-01T09:02:08;13.65;;;9.13;;
19205;SDS011;59358;52.134;5.596;2023-03-01T09:04:38;15.68;;;9.55;;
19205;SDS011;59358;52.134;5.596;2023-03-01T09:07:05;17.98;;;9.15;;
19205;SDS011;59358;52.134;5.596;2023-03-01T09:09:31;14.68;;;9.02;;
19205;SDS011;59358;52.134;5.596;2023-03-01T09:11:59;15.75;;;8.43;;
19205;SDS011;59358;52.134;5.596;2023-03-01T09:14:26;16.70;;;8.68;;
19205;SDS011;59358;52.134;5.596;2023-03-01T09:16:55;14.98;;;8.55;;
19205;SDS011;59358;52.134;5.596;2023-03-01T09:19:22;16.52;;;9.23;;
19205;SDS011;59358;52.134;5.596;2023-03-01T09:21:49;18.95;;;9.25;;
19205;SDS011;59358;52.134;5.596;2023-03-01T09:24:18;13.25;;;7.95;;
19205;SDS011;59358;52.134;5.596;2023-03-01T09:26:46;16.42;;;7.85;;
19205;SDS011;59358;52.134;5.596;2023-03-01T09:29:13;28.63;;;7.22;;
19205;SDS011;59358;52.134;5.596;2023-03-01T09:31:41;12.63;;;6.85;;
19205;SDS011;59358;52.134;5.596;2023-03-01T09:34:10;12.88;;;5.70;;
19205;SDS011;59358;52.134;5.596;2023-03-01T09:36:38;21.77;;;6.80;;
19205;SDS011;59358;52.134;5.596;2023-03-01T09:39:05;13.05;;;6.35;;
19205;SDS011;59358;52.134;5.596;2023-03-01T09:41:43;14.52;;;7.30;;
19205;SDS011;59358;52.134;5.596;2023-03-01T09:44:15;23.08;;;6.80;;
19205;SDS011;59358;52.134;5.596;2023-03-01T09:46:50;13.93;;;6.72;;
19205;SDS011;59358;52.134;5.596;2023-03-01T09:49:19;15.60;;;5.38;;
19205;SDS011;59358;52.134;5.596;2023-03-01T09:51:54;11.60;;;6.75;;
19205;SDS011;59358;52.134;5.596;2023-03-01T09:54:25;14.70;;;6.88;;
19205;SDS011;59358;52.134;5.596;2023-03-01T09:56:59;14.15;;;5.78;;
19205;SDS011;59358;52.134;5.596;2023-03-01T09:59:46;11.48;;;4.90;;
19205;SDS011;59358;52.134;5.596;2023-03-01T10:02:31;14.00;;;5.55;;
19205;SDS011;59358;52.134;5.596;2023-03-01T10:05:09;6.50;;;4.13;;
19205;SDS011;59358;52.134;5.596;2023-03-01T10:07:53;13.93;;;4.30;;
19205;SDS011;59358;52.134;5.596;2023-03-01T10:10:27;8.93;;;4.80;;
19205;SDS011;59358;52.134;5.596;2023-03-01T10:12:58;8.75;;;4.55;;
19205;SDS011;59358;52.134;5.596;2023-03-01T10:15:32;7.18;;;4.57;;
19205;SDS011;59358;52.134;5.596;2023-03-01T10:18:03;13.65;;;5.00;;
19205;SDS011;59358;52.134;5.596;2023-03-01T10:20:41;15.20;;;4.95;;
19205;SDS011;59358;52.134;5.596;2023-03-01T10:23:12;8.63;;;5.00;;
19205;SDS011;59358;52.134;5.596;2023-03-01T10:25:43;11.32;;;5.05;;
19205;SDS011;59358;52.134;5.596;2023-03-01T10:28:17;10.73;;;4.32;;
19205;SDS011;59358;52.134;5.596;2023-03-01T10:30:51;8.07;;;3.95;;
19205;SDS011;59358;52.134;5.596;2023-03-01T10:33:20;18.80;;;5.93;;
19205;SDS011;59358;52.134;5.596;2023-03-01T10:35:50;16.00;;;6.03;;
19205;SDS011;59358;52.134;5.596;2023-03-01T10:38:19;9.38;;;4.13;;
19205;SDS011;59358;52.134;5.596;2023-03-01T10:40:50;9.30;;;4.05;;
19205;SDS011;59358;52.134;5.596;2023-03-01T10:43:19;8.02;;;4.03;;
19205;SDS011;59358;52.134;5.596;2023-03-01T10:45:46;7.65;;;4.13;;
19205;SDS011;59358;52.134;5.596;2023-03-01T10:48:14;5.32;;;3.63;;
19205;SDS011;59358;52.134;5.596;2023-03-01T10:50:43;11.43;;;3.50;;
19205;SDS011;59358;52.134;5.596;2023-03-01T10:53:27;5.38;;;3.53;;
19205;SDS011;59358;52.134;5.596;2023-03-01T10:56:00;6.38;;;3.50;;
19205;SDS011;59358;52.134;5.596;2023-03-01T10:58:30;5.68;;;3.65;;
19205;SDS011;59358;52.134;5.596;2023-03-01T11:00:58;6.32;;;3.70;;
19205;SDS011;59358;52.134;5.596;2023-03-01T11:03:27;5.35;;;3.35;;
19205;SDS011;59358;52.134;5.596;2023-03-01T11:05:58;4.72;;;3.15;;
19205;SDS011;59358;52.134;5.596;2023-03-01T11:08:32;8.23;;;4.00;;
19205;SDS011;59358;52.134;5.596;2023-03-01T11:11:05;5.20;;;4.13;;
19205;SDS011;59358;52.134;5.596;2023-03-01T11:13:39;5.90;;;3.78;;
19205;SDS011;59358;52.134;5.596;2023-03-01T11:16:22;9.50;;;4.35;;
19205;SDS011;59358;52.134;5.596;2023-03-01T11:18:56;8.18;;;4.70;;
19205;SDS011;59358;52.134;5.596;2023-03-01T11:21:24;19.50;;;5.60;;
19205;SDS011;59358;52.134;5.596;2023-03-01T11:23:56;7.63;;;5.00;;
19205;SDS011;59358;52.134;5.596;2023-03-01T11:26:26;7.70;;;5.15;;
19205;SDS011;59358;52.134;5.596;2023-03-01T11:28:58;13.10;;;4.60;;
19205;SDS011;59358;52.134;5.596;2023-03-01T11:31:30;7.95;;;4.50;;
19205;SDS011;59358;52.134;5.596;2023-03-01T11:33:59;11.13;;;6.72;;
19205;SDS011;59358;52.134;5.596;2023-03-01T11:36:35;7.05;;;4.70;;
19205;SDS011;59358;52.134;5.596;2023-03-01T11:39:15;5.28;;;3.97;;
19205;SDS011;59358;52.134;5.596;2023-03-01T11:41:48;4.82;;;4.15;;
19205;SDS011;59358;52.134;5.596;2023-03-01T11:44:28;5.97;;;3.97;;
19205;SDS011;59358;52.134;5.596;2023-03-01T11:47:05;6.60;;;4.13;;
19205;SDS011;59358;52.134;5.596;2023-03-01T11:49:47;7.68;;;4.25;;
19205;SDS011;59358;52.134;5.596;2023-03-01T11:52:35;6.45;;;3.92;;
19205;SDS011;59358;52.134;5.596;2023-03-01T11:55:26;5.32;;;3.58;;
19205;SDS011;59358;52.134;5.596;2023-03-01T11:58:08;7.03;;;4.07;;
19205;SDS011;59358;52.134;5.596;2023-03-01T12:01:03;7.28;;;3.75;;
19205;SDS011;59358;52.134;5.596;2023-03-01T12:03:50;6.22;;;3.63;;
19205;SDS011;59358;52.134;5.596;2023-03-01T12:06:42;3.58;;;3.20;;
19205;SDS011;59358;52.134;5.596;2023-03-01T12:09:21;9.95;;;4.05;;
19205;SDS011;59358;52.134;5.596;2023-03-01T12:12:22;6.00;;;3.55;;
19205;SDS011;59358;52.134;5.596;2023-03-01T12:15:07;8.00;;;4.45;;
19205;SDS011;59358;52.134;5.596;2023-03-01T12:18:06;4.85;;;3.70;;
19205;SDS011;59358;52.134;5.596;2023-03-01T12:20:58;14.32;;;4.10;;
19205;SDS011;59358;52.134;5.596;2023-03-01T12:23:39;9.05;;;5.40;;
19205;SDS011;59358;52.134;5.596;2023-03-01T12:26:20;7.43;;;4.32;;
19205;SDS011;59358;52.134;5.596;2023-03-01T12:29:02;8.63;;;4.75;;
19205;SDS011;59358;52.134;5.596;2023-03-01T12:31:50;9.93;;;4.10;;
19205;SDS011;59358;52.134;5.596;2023-03-01T12:34:47;6.25;;;3.55;;
19205;SDS011;59358;52.134;5.596;2023-03-01T12:37:25;7.45;;;4.05;;
19205;SDS011;59358;52.134;5.596;2023-03-01T12:40:12;9.38;;;4.90;;
19205;SDS011;59358;52.134;5.596;2023-03-01T12:42:52;8.45;;;4.18;;
19205;SDS011;59358;52.134;5.596;2023-03-01T12:45:34;4.95;;;3.47;;
19205;SDS011;59358;52.134;5.596;2023-03-01T12:48:21;6.95;;;3.75;;
19205;SDS011;59358;52.134;5.596;2023-03-01T12:50:59;5.13;;;3.67;;
19205;SDS011;59358;52.134;5.596;2023-03-01T12:53:29;12.93;;;4.95;;
19205;SDS011;59358;52.134;5.596;2023-03-01T12:55:58;7.70;;;4.28;;
19205;SDS011;59358;52.134;5.596;2023-03-01T12:58:29;13.50;;;5.22;;
19205;SDS011;59358;52.134;5.596;2023-03-01T13:01:11;5.65;;;3.40;;
19205;SDS011;59358;52.134;5.596;2023-03-01T13:03:54;6.80;;;4.18;;
19205;SDS011;59358;52.134;5.596;2023-03-01T13:06:30;8.75;;;5.18;;
19205;SDS011;59358;52.134;5.596;2023-03-01T13:09:07;7.32;;;3.85;;
19205;SDS011;59358;52.134;5.596;2023-03-01T13:11:41;6.15;;;3.50;;
19205;SDS011;59358;52.134;5.596;2023-03-01T13:20:11;6.70;;;3.80;;
19205;SDS011;59358;52.134;5.596;2023-03-01T13:22:40;6.30;;;3.88;;
19205;SDS011;59358;52.134;5.596;2023-03-01T13:25:15;5.85;;;4.05;;
19205;SDS011;59358;52.134;5.596;2023-03-01T13:27:44;7.05;;;4.13;;
19205;SDS011;59358;52.134;5.596;2023-03-01T13:36:07;20.52;;;4.85;;
19205;SDS011;59358;52.134;5.596;2023-03-01T13:38:36;17.67;;;5.18;;
19205;SDS011;59358;52.134;5.596;2023-03-01T13:41:06;6.35;;;4.15;;
19205;SDS011;59358;52.134;5.596;2023-03-01T13:43:34;7.50;;;4.25;;
19205;SDS011;59358;52.134;5.596;2023-03-01T13:46:07;5.72;;;4.40;;
19205;SDS011;59358;52.134;5.596;2023-03-01T13:48:37;6.85;;;3.92;;
19205;SDS011;59358;52.134;5.596;2023-03-01T13:51:07;5.00;;;3.95;;
19205;SDS011;59358;52.134;5.596;2023-03-01T13:53:38;7.40;;;4.50;;
19205;SDS011;59358;52.134;5.596;2023-03-01T13:56:09;7.82;;;4.30;;
19205;SDS011;59358;52.134;5.596;2023-03-01T13:58:46;5.35;;;3.90;;
19205;SDS011;59358;52.134;5.596;2023-03-01T14:01:24;7.97;;;3.95;;
19205;SDS011;59358;52.134;5.596;2023-03-01T14:03:52;7.38;;;3.70;;
19205;SDS011;59358;52.134;5.596;2023-03-01T14:06:22;5.93;;;4.20;;
19205;SDS011;59358;52.134;5.596;2023-03-01T14:08:51;8.52;;;4.47;;
19205;SDS011;59358;52.134;5.596;2023-03-01T14:11:35;6.55;;;4.00;;
19205;SDS011;59358;52.134;5.596;2023-03-01T14:14:20;11.10;;;4.45;;
19205;SDS011;59358;52.134;5.596;2023-03-01T14:17:07;6.03;;;3.22;;
19205;SDS011;59358;52.134;5.596;2023-03-01T14:19:47;10.85;;;3.88;;
19205;SDS011;59358;52.134;5.596;2023-03-01T14:22:25;4.32;;;3.75;;
19205;SDS011;59358;52.134;5.596;2023-03-01T14:24:55;5.45;;;3.60;;
19205;SDS011;59358;52.134;5.596;2023-03-01T14:27:23;7.70;;;4.68;;
19205;SDS011;59358;52.134;5.596;2023-03-01T14:29:56;14.02;;;7.88;;
19205;SDS011;59358;52.134;5.596;2023-03-01T14:32:24;6.70;;;4.07;;
19205;SDS011;59358;52.134;5.596;2023-03-01T14:34:53;6.22;;;3.88;;
19205;SDS011;59358;52.134;5.596;2023-03-01T14:37:21;8.95;;;4.03;;
19205;SDS011;59358;52.134;5.596;2023-03-01T14:39:51;6.53;;;3.83;;
19205;SDS011;59358;52.134;5.596;2023-03-01T14:42:19;5.30;;;4.13;;
19205;SDS011;59358;52.134;5.596;2023-03-01T14:44:48;7.22;;;4.53;;
19205;SDS011;59358;52.134;5.596;2023-03-01T14:47:20;7.70;;;4.43;;
19205;SDS011;59358;52.134;5.596;2023-03-01T14:49:54;6.32;;;4.07;;
19205;SDS011;59358;52.134;5.596;2023-03-01T14:52:25;5.90;;;3.58;;
19205;SDS011;59358;52.134;5.596;2023-03-01T14:55:01;5.75;;;4.05;;
19205;SDS011;59358;52.134;5.596;2023-03-01T14:57:30;6.80;;;3.80;;
19205;SDS011;59358;52.134;5.596;2023-03-01T14:59:57;8.05;;;4.65;;
19205;SDS011;59358;52.134;5.596;2023-03-01T15:02:29;7.50;;;4.07;;